Time;durP1;ratioP1;P1;durP2;ratioP2;P2;SDS_P1;SDS_P2;PMS_P1;PMS_P2;Temp;Humidity;BMP_temperature;BMP_pressure;BME280_temperature;BME280_humidity;BME280_pressure;Samples;Min_cycle;Max_cycle;Signal;HPM_P1;HPM_P2
2021/12/24 00:01:22;;;;;;;;;;;;;;;-5.59;56.01;97131.27;107924;1271;68763;-67
2021/12/24 00:03:52;;;;;;;15.60;9.40;;;;;;;-5.57;55.82;97124.63;107934;1272;60112;-64
2021/12/24 00:06:22;;;;;;;17.70;9.40;;;;;;;-5.59;55.75;97115.98;107969;1271;59754;-69
2021/12/24 00:08:55;;;;;;;16.60;10.10;;;;;;;-5.60;55.76;97109.88;107974;1272;71104;-64
2021/12/24 00:11:24;;;;;;;16.90;9.10;;;;;;;-5.59;55.89;97104.95;107908;1273;66898;-65
2021/12/24 00:13:54;;;;;;;13.40;8.30;;;;;;;-5.61;55.88;97113.96;107899;1273;68738;-65
2021/12/24 00:16:30;;;;;;;10.60;6.60;;;;;;;-5.61;55.99;97112.45;107926;1271;59738;-64
2021/12/24 00:19:25;;;;;;;11.60;7.40;;;;;;;-5.60;55.96;97110.90;108024;1272;59688;-67
2021/12/24 00:35:54;;;;;;;7.20;6.30;;;;;;;-5.54;56.15;97089.09;107958;1273;72048;-67
2021/12/24 00:38:24;;;;;;;8.60;6.20;;;;;;;-5.51;55.95;97078.33;108028;1272;68545;-64
2021/12/24 00:40:55;;;;;;;16.10;9.10;;;;;;;-5.48;55.83;97074.41;107814;1275;69478;-63
2021/12/24 00:43:25;;;;;;;13.90;8.90;;;;;;;-5.46;56.05;97070.95;107991;1272;59696;-63
2021/12/24 00:45:55;;;;;;;17.40;10.20;;;;;;;-5.44;56.44;97074.33;108056;1272;59689;-64
2021/12/24 00:48:27;;;;;;;11.70;6.50;;;;;;;-5.39;56.30;97066.77;108123;1272;71380;-70
2021/12/24 00:51:18;;;;;;;14.10;8.60;;;;;;;-5.34;56.23;97064.01;107933;1272;68696;-66
2021/12/24 00:56:16;;;;;;;16.10;9.00;;;;;;;-5.29;56.15;97044.02;107873;1272;59731;-63
2021/12/24 00:58:47;;;;;;;14.10;8.70;;;;;;;-5.31;56.88;97034.55;107839;1275;59684;-64
2021/12/24 01:01:18;;;;;;;13.00;8.10;;;;;;;-5.31;56.71;97031.66;107957;1274;70639;-63
2021/12/24 01:03:48;;;;;;;18.50;10.80;;;;;;;-5.28;56.21;97016.66;108034;1272;67865;-64
2021/12/24 01:06:18;;;;;;;;;;;;;;;-5.26;56.07;97005.77;107837;1275;69330;-64
2021/12/24 01:08:47;;;;;;;11.20;7.50;;;;;;;-5.28;56.28;97000.52;107743;1275;59770;-64
2021/12/24 01:11:17;;;;;;;15.60;9.10;;;;;;;-5.28;56.15;96994.08;107994;1272;59667;-63
2021/12/24 01:13:47;;;;;;;12.40;8.10;;;;;;;-5.29;56.23;96986.09;107994;1275;70652;-64
2021/12/24 01:16:25;;;;;;;14.40;8.80;;;;;;;-5.26;56.08;96972.64;108060;1272;68742;-66
2021/12/24 01:19:05;;;;;;;11.20;7.20;;;;;;;-5.29;56.33;96972.02;108023;1272;69647;-70
2021/12/24 01:22:02;;;;;;;13.80;7.60;;;;;;;-5.32;56.30;96968.31;107812;1276;59758;-70
2021/12/24 01:24:35;;;;;;;13.70;7.00;;;;;;;-5.35;56.43;96960.90;107965;1275;59716;-65
2021/12/24 01:27:18;;;;;;;11.20;6.30;;;;;;;-5.33;56.47;96956.60;107787;1275;70896;-65
2021/12/24 01:30:06;;;;;;;18.20;9.60;;;;;;;-5.28;56.07;96942.26;107715;1274;66918;-72
2021/12/24 01:38:20;;;;;;;19.60;10.80;;;;;;;-5.35;56.24;96923.71;108023;1275;59674;-70
2021/12/24 01:43:27;;;;;;;13.50;8.40;;;;;;;-5.39;56.89;96921.38;108029;1272;68639;-71
2021/12/24 01:46:00;;;;;;;12.70;6.70;;;;;;;-5.40;56.63;96906.98;107856;1275;69518;-73
2021/12/24 01:48:30;;;;;;;17.40;9.90;;;;;;;-5.37;56.67;96905.23;107888;1275;59764;-70
2021/12/24 01:51:00;;;;;;;10.40;6.20;;;;;;;-5.38;56.72;96906.42;107880;1274;59722;-67
2021/12/24 01:53:44;;;;;;;11.60;7.30;;;;;;;-5.35;56.46;96899.23;107722;1275;70724;-65
2021/12/24 01:56:13;;;;;;;15.00;8.60;;;;;;;-5.32;56.46;96890.17;107898;1274;67929;-67
2021/12/24 01:58:43;;;;;;;15.70;8.90;;;;;;;-5.30;56.34;96886.25;107839;1275;68884;-66
2021/12/24 02:01:15;;;;;;;17.50;8.80;;;;;;;-5.27;56.08;96879.90;107953;1272;59707;-66
2021/12/24 02:03:44;;;;;;;9.00;6.10;;;;;;;-5.28;55.92;96885.52;107981;1272;59780;-66
2021/12/24 02:06:14;;;;;;;14.40;8.60;;;;;;;-5.26;55.87;96880.57;107936;1275;70947;-70
2021/12/24 02:08:43;;;;;;;8.40;5.90;;;;;;;-5.26;56.02;96879.20;107917;1273;67886;-72
2021/12/24 02:11:14;;;;;;;13.80;8.70;;;;;;;-5.22;55.92;96873.69;107893;1275;69429;-74
2021/12/24 02:13:44;;;;;;;10.10;6.50;;;;;;;-5.22;55.97;96876.25;108051;1272;59706;-68
2021/12/24 02:30:20;;;;;;;11.80;8.40;;;;;;;-5.06;55.96;96839.58;107993;1272;59706;-67
2021/12/24 02:32:50;;;;;;;13.60;8.60;;;;;;;-5.05;55.76;96831.03;107913;1271;72100;-67
2021/12/24 02:35:22;;;;;;;15.00;9.50;;;;;;;-5.09;55.95;96821.78;107928;1272;67912;-70
2021/12/24 02:37:52;;;;;;;13.10;8.70;;;;;;;-5.12;56.03;96819.28;107900;1275;69333;-69
2021/12/24 02:40:22;;;;;;;9.30;6.20;;;;;;;-5.18;55.86;96814.13;107982;1273;59776;-72
2021/12/24 02:42:54;;;;;;;13.30;8.00;;;;;;;-5.18;55.96;96815.48;107937;1272;59752;-74
2021/12/24 02:45:28;;;;;;;15.40;7.80;;;;;;;-5.15;56.09;96808.64;107953;1272;70718;-68
2021/12/24 02:56:15;;;;;;;15.50;9.00;;;;;;;-5.13;56.38;96774.79;107955;1274;59725;-72
2021/12/24 02:58:47;;;;;;;12.90;7.30;;;;;;;-5.14;56.35;96767.66;107997;1272;70846;-72
2021/12/24 03:01:20;;;;;;;19.20;10.10;;;;;;;-5.11;56.34;96769.82;107924;1275;68754;-69
2021/12/24 03:03:51;;;;;;;14.70;8.00;;;;;;;-5.10;56.41;96770.32;107888;1275;68468;-70
2021/12/24 03:06:30;;;;;;;14.80;8.20;;;;;;;-5.08;56.51;96766.70;107787;1276;59745;-73
2021/12/24 03:09:01;;;;;;;16.10;9.50;;;;;;;-5.08;56.63;96762.12;107937;1275;59716;-73
2021/12/24 03:11:31;;;;;;;16.80;9.30;;;;;;;-5.07;56.95;96757.52;108036;1272;71583;-71
2021/12/24 03:14:02;;;;;;;12.40;7.80;;;;;;;-5.06;56.96;96753.92;107991;1274;68111;-71
2021/12/24 03:16:33;;;;;;;7.80;5.60;;;;;;;-5.04;57.06;96749.96;107945;1272;68554;-71
2021/12/24 03:19:05;;;;;;;10.10;7.00;;;;;;;-5.01;57.05;96741.73;108111;1274;59825;-69
2021/12/24 03:21:53;;;;;;;23.20;12.50;;;;;;;-4.97;56.86;96738.95;108008;1272;59762;-74
2021/12/24 03:26:55;;;;;;;11.40;7.40;;;;;;;-4.91;56.64;96729.42;107849;1275;67838;-67
2021/12/24 03:29:25;;;;;;;11.70;8.70;;;;;;;-4.89;56.55;96728.56;107930;1275;69234;-65
2021/12/24 03:31:55;;;;;;;11.00;7.80;;;;;;;-4.87;56.52;96725.97;107952;1272;59789;-65
2021/12/24 03:34:25;;;;;;;9.30;6.50;;;;;;;-4.86;56.65;96725.26;107947;1275;59754;-64
2021/12/24 03:36:55;;;;;;;14.10;8.90;;;;;;;-4.84;56.53;96724.04;107946;1272;70789;-72
2021/12/24 03:39:31;;;;;;;12.20;7.10;;;;;;;-4.83;56.61;96720.27;107884;1275;67966;-72
2021/12/24 03:42:05;;;;;;;12.30;7.80;;;;;;;-4.79;56.60;96718.65;107937;1272;69419;-70
2021/12/24 03:44:42;;;;;;;10.20;6.50;;;;;;;-4.81;56.77;96715.45;107947;1272;59770;-67
2021/12/24 03:47:19;;;;;;;18.00;10.40;;;;;;;-4.79;56.78;96707.94;107992;1274;59700;-67
2021/12/24 03:50:04;;;;;;;20.80;11.70;;;;;;;-4.79;56.83;96702.82;107951;1272;70833;-69
2021/12/24 03:55:19;;;;;;;13.00;8.00;;;;;;;-4.84;57.22;96699.20;107950;1272;68845;-67
2021/12/24 03:57:49;;;;;;;17.50;9.10;;;;;;;-4.83;57.36;96702.59;107897;1275;59707;-72
2021/12/24 04:00:37;;;;;;;12.80;9.60;;;;;;;-4.81;57.40;96692.67;107976;1272;59758;-64
2021/12/24 04:03:23;;;;;;;16.30;8.90;;;;;;;-4.79;57.49;96696.54;107969;1272;71463;-64
2021/12/24 04:06:08;;;;;;;12.00;8.40;;;;;;;-4.75;57.52;96692.70;107933;1272;67840;-66
2021/12/24 04:09:16;;;;;;;10.00;6.20;;;;;;;-4.70;57.52;96691.91;107941;1275;68970;-74
2021/12/24 04:11:49;;;;;;;11.80;8.10;;;;;;;-4.67;57.86;96687.59;107887;1273;59751;-69
2021/12/24 04:14:23;;;;;;;15.90;10.70;;;;;;;-4.64;57.80;96682.23;107934;1272;59739;-70
2021/12/24 04:16:53;;;;;;;15.10;9.30;;;;;;;-4.61;57.81;96678.10;107979;1272;72988;-70
2021/12/24 04:24:50;;;;;;;13.80;8.60;;;;;;;-4.58;57.60;96675.13;107731;1272;68758;-72
2021/12/24 04:25:12;;;;;;;13.50;8.30;;;;;;;-4.51;57.95;96670.55;107908;1275;59745;-68
2021/12/24 04:27:42;;;;;;;15.90;10.20;;;;;;;-4.48;58.00;96660.08;107856;1275;60460;-69
2021/12/24 04:30:20;;;;;;;15.10;8.80;;;;;;;-4.48;58.31;96669.95;107773;1274;71376;-71
2021/12/24 04:33:13;;;;;;;18.50;11.00;;;;;;;-4.43;58.12;96660.80;107674;1277;66728;-72
2021/12/24 04:35:57;;;;;;;14.60;8.50;;;;;;;-4.40;58.29;96654.93;107922;1277;68558;-70
2021/12/24 04:38:39;;;;;;;11.90;8.30;;;;;;;-4.37;58.20;96651.98;107769;1275;59783;-67
2021/12/24 05:03:37;;;;;;;16.70;10.90;;;;;;;-4.17;58.36;96636.79;107925;1275;69599;-74
2021/12/24 05:06:28;;;;;;;20.00;13.60;;;;;;;-4.15;58.30;96629.59;107751;1275;59744;-72
2021/12/24 05:09:05;;;;;;;16.30;9.30;;;;;;;-4.12;58.90;96620.33;107864;1274;59770;-66
2021/12/24 05:11:36;;;;;;;12.80;8.30;;;;;;;-4.08;58.70;96615.27;107880;1275;71709;-72
2021/12/24 05:14:06;;;;;;;17.70;11.20;;;;;;;-4.01;58.39;96604.73;107704;1275;68591;-71
2021/12/24 05:23:10;;;;;;;11.80;7.60;;;;;;;-3.95;58.61;96594.67;107740;1275;59677;-71
2021/12/24 05:25:44;;;;;;;13.30;9.60;;;;;;;-3.91;58.93;96598.46;107885;1275;71651;-67
2021/12/24 05:28:15;;;;;;;9.20;5.50;;;;;;;-3.88;59.40;96597.01;107908;1276;68584;-69
2021/12/24 05:30:46;;;;;;;9.70;7.40;;;;;;;-3.84;59.37;96597.26;107702;1275;68427;-72
2021/12/24 05:33:16;;;;;;;14.20;9.20;;;;;;;-3.82;59.42;96590.23;107880;1275;60189;-71
2021/12/24 05:35:45;;;;;;;11.10;7.00;;;;;;;-3.80;59.20;96575.86;108063;1272;59767;-68
2021/12/24 05:38:16;;;;;;;15.10;9.30;;;;;;;-3.77;58.82;96573.21;107750;1276;70412;-72
2021/12/24 05:40:46;;;;;;;12.50;8.40;;;;;;;-3.75;58.85;96567.87;107745;1275;67943;-64
2021/12/24 05:43:15;;;;;;;15.70;9.10;;;;;;;-3.72;58.81;96563.69;107871;1275;69455;-68
2021/12/24 05:45:45;;;;;;;22.50;11.60;;;;;;;-3.72;59.03;96556.02;107818;1275;59786;-73
2021/12/24 05:48:24;;;;;;;18.10;10.80;;;;;;;-3.72;60.46;96550.58;107942;1275;59697;-68
2021/12/24 05:51:00;;;;;;;14.00;10.00;;;;;;;-3.71;60.82;96551.92;107970;1275;70850;-70
2021/12/24 05:53:48;;;;;;;14.30;8.60;;;;;;;-3.70;60.25;96551.54;107911;1276;66877;-67
2021/12/24 05:56:20;;;;;;;12.50;8.30;;;;;;;-3.67;60.47;96547.38;107849;1275;68616;-67
2021/12/24 05:58:58;;;;;;;9.90;6.70;;;;;;;-3.66;60.46;96547.15;107860;1276;59734;-69
2021/12/24 06:01:28;;;;;;;15.60;8.20;;;;;;;-3.63;60.68;96551.85;107747;1274;59687;-68
2021/12/24 06:03:58;;;;;;;16.40;9.30;;;;;;;-3.61;60.96;96538.51;108052;1272;71413;-69
2021/12/24 06:06:27;;;;;;;14.90;8.80;;;;;;;-3.59;61.51;96551.05;107954;1275;68696;-66
2021/12/24 06:08:57;;;;;;;18.30;11.40;;;;;;;-3.58;61.79;96546.75;107732;1276;68963;-65
2021/12/24 06:11:26;;;;;;;21.50;13.30;;;;;;;-3.57;62.37;96532.42;107913;1274;60241;-67
2021/12/24 06:13:56;;;;;;;19.40;13.60;;;;;;;-3.56;62.01;96535.27;107878;1275;59674;-73
2021/12/24 06:16:26;;;;;;;23.50;14.70;;;;;;;-3.54;62.18;96538.82;108026;1274;70996;-72
2021/12/24 06:19:00;;;;;;;20.40;11.60;;;;;;;-3.53;62.63;96537.39;107932;1273;68631;-70
2021/12/24 06:21:30;;;;;;;18.10;11.50;;;;;;;-3.52;62.91;96541.11;108013;1275;68433;-65
2021/12/24 06:24:00;;;;;;;17.60;11.90;;;;;;;-3.49;62.92;96544.08;107900;1272;59667;-70
2021/12/24 06:26:30;;;;;;;23.20;13.00;;;;;;;-3.47;63.12;96551.52;107939;1272;59738;-65
2021/12/24 06:28:59;;;;;;;21.30;14.40;;;;;;;-3.44;63.96;96548.89;107893;1275;70846;-73
2021/12/24 06:31:28;;;;;;;23.00;15.20;;;;;;;-3.45;63.98;96544.80;107919;1272;67908;-73
2021/12/24 06:33:59;;;;;;;23.20;14.50;;;;;;;-3.42;65.78;96544.56;107881;1275;69306;-70
2021/12/24 06:36:33;;;;;;;18.20;11.50;;;;;;;-3.44;65.69;96543.42;107899;1272;59747;-73
2021/12/24 06:39:06;;;;;;;18.10;11.80;;;;;;;-3.43;65.22;96550.04;107910;1275;59713;-74
2021/12/24 06:41:36;;;;;;;18.00;11.10;;;;;;;-3.38;65.71;96546.63;107939;1272;71024;-72
2021/12/24 06:44:10;;;;;;;14.90;10.50;;;;;;;-3.34;65.49;96551.63;107956;1272;68605;-71
2021/12/24 06:46:42;;;;;;;16.50;10.50;;;;;;;-3.27;66.07;96546.98;107942;1275;69402;-73
2021/12/24 06:49:12;;;;;;;14.00;9.90;;;;;;;-3.20;66.11;96542.48;107912;1275;59770;-72
2021/12/24 06:51:41;;;;;;;24.40;14.70;;;;;;;-3.11;65.68;96553.45;107998;1275;59703;-64
2021/12/24 06:54:11;;;;;;;26.20;14.00;;;;;;;-3.03;65.61;96534.11;107926;1275;71590;-65
2021/12/24 06:56:46;;;;;;;18.20;11.20;;;;;;;-2.95;65.23;96527.02;107863;1275;67834;-66
2021/12/24 06:59:16;;;;;;;18.50;12.00;;;;;;;-2.87;65.47;96522.67;107819;1276;68431;-67
2021/12/24 07:01:46;;;;;;;;;;;;;;;-2.81;65.24;96524.85;107769;1278;59709;-65
2021/12/24 07:04:15;;;;;;;15.30;11.10;;;;;;;-2.76;65.36;96535.06;107956;1275;59732;-68
2021/12/24 07:06:48;;;;;;;19.40;11.10;;;;;;;-2.73;65.46;96526.77;107867;1272;70863;-65
2021/12/24 07:09:17;;;;;;;22.90;15.50;;;;;;;-2.70;65.59;96507.59;107881;1275;68557;-65
2021/12/24 07:11:48;;;;;;;15.80;10.20;;;;;;;-2.70;65.51;96503.29;107991;1272;68756;-64
2021/12/24 07:14:18;;;;;;;17.90;11.90;;;;;;;-2.66;65.67;96504.20;107885;1276;60035;-65
2021/12/24 07:16:47;;;;;;;17.40;12.30;;;;;;;-2.61;66.38;96510.84;107902;1275;59669;-63
2021/12/24 07:19:17;;;;;;;18.40;13.00;;;;;;;-2.55;66.00;96513.19;108015;1275;72425;-64
2021/12/24 07:21:46;;;;;;;18.40;10.90;;;;;;;-2.49;65.47;96510.95;108037;1274;67836;-68
2021/12/24 07:24:15;;;;;;;22.40;13.50;;;;;;;-2.44;65.44;96506.69;108047;1275;68743;-69
2021/12/24 07:26:45;;;;;;;25.70;16.90;;;;;;;-2.42;66.12;96506.40;108035;1272;59691;-63
2021/12/24 07:29:14;;;;;;;21.80;14.70;;;;;;;-2.39;65.57;96494.19;108089;1272;59705;-70
2021/12/24 07:31:43;;;;;;;15.70;12.20;;;;;;;-2.38;66.98;96497.41;107980;1271;71808;-69
2021/12/24 07:34:13;;;;;;;17.70;13.50;;;;;;;-2.36;66.23;96498.52;108060;1273;68836;-63
2021/12/24 07:36:42;;;;;;;19.10;14.00;;;;;;;-2.30;66.16;96478.16;107984;1274;69025;-63
2021/12/24 07:39:12;;;;;;;25.90;16.70;;;;;;;-2.23;66.56;96485.27;108005;1272;59755;-64
2021/12/24 07:41:41;;;;;;;18.90;12.10;;;;;;;-2.17;66.49;96486.04;108044;1274;59659;-68
2021/12/24 07:44:17;;;;;;;23.00;15.20;;;;;;;-2.08;66.90;96482.62;107998;1274;71604;-64
2021/12/24 07:46:51;;;;;;;26.10;16.10;;;;;;;-1.99;66.40;96481.30;108064;1274;67818;-66
2021/12/24 07:54:26;;;;;;;20.30;15.40;;;;;;;-1.83;67.07;96482.55;108094;1273;58951;-67
2021/12/24 07:56:57;;;;;;;25.50;16.00;;;;;;;-1.78;67.51;96481.32;108100;1275;71950;-63
2021/12/24 07:59:36;;;;;;;16.30;10.90;;;;;;;-1.73;67.29;96485.93;108020;1275;67216;-66
2021/12/24 08:02:23;;;;;;;26.60;17.30;;;;;;;-1.68;67.19;96489.81;108032;1272;69587;-67
2021/12/24 08:04:53;;;;;;;26.00;14.30;;;;;;;-1.70;68.13;96491.28;108043;1272;59747;-67
2021/12/24 08:07:24;;;;;;;21.00;13.60;;;;;;;-1.68;67.55;96481.77;108048;1272;59764;-64
2021/12/24 08:09:54;;;;;;;28.70;16.20;;;;;;;-1.69;67.89;96483.71;108066;1272;71630;-65
2021/12/24 08:12:23;;;;;;;22.80;13.10;;;;;;;-1.73;68.19;96485.23;108077;1272;68489;-65
2021/12/24 08:14:52;;;;;;;23.50;15.90;;;;;;;-1.72;68.70;96479.55;108038;1272;69565;-65
2021/12/24 08:17:21;;;;;;;26.40;17.60;;;;;;;-1.71;69.34;96480.22;107935;1275;59758;-68
2021/12/24 08:19:50;;;;;;;25.80;16.60;;;;;;;-1.75;69.85;96475.57;108045;1272;59753;-69
2021/12/24 08:22:19;;;;;;;21.70;13.30;;;;;;;-1.77;69.88;96474.64;107518;1275;608968;-67
2021/12/24 08:24:49;;;;;;;22.20;14.10;;;;;;;-1.77;70.24;96472.07;108140;1274;68711;-64
2021/12/24 08:27:19;;;;;;;23.30;15.50;;;;;;;-1.80;70.12;96462.98;108040;1274;69543;-70
2021/12/24 08:29:51;;;;;;;25.90;15.80;;;;;;;-1.82;70.31;96465.08;107985;1272;59696;-71
2021/12/24 08:32:20;;;;;;;26.50;16.20;;;;;;;-1.81;70.60;96464.00;108119;1274;59702;-70
2021/12/24 08:36:20;;;;;;;22.70;15.90;;;;;;;-1.74;70.97;96471.61;104682;1311;596816;-72
2021/12/24 08:38:50;;;;;;;23.50;14.30;;;;;;;-1.72;70.83;96462.30;107296;1284;57655;-70
2021/12/24 08:41:19;;;;;;;20.50;15.20;;;;;;;-1.65;71.36;96462.36;107303;1285;57662;-66
2021/12/24 08:43:48;;;;;;;26.50;16.70;;;;;;;-1.59;70.96;96456.84;107319;1284;67588;-65
2021/12/24 08:46:18;;;;;;;25.80;18.30;;;;;;;-1.50;70.58;96459.40;107044;1288;67886;-71
2021/12/24 08:48:47;;;;;;;30.20;21.30;;;;;;;-1.46;71.06;96453.91;107053;1283;246930;-65
2021/12/24 08:51:16;;;;;;;23.80;16.40;;;;;;;-1.41;70.74;96452.85;107288;1282;57598;-68
2021/12/24 08:53:46;;;;;;;25.80;17.50;;;;;;;-1.36;70.88;96445.15;107318;1281;57577;-64
2021/12/24 08:56:15;;;;;;;26.00;17.40;;;;;;;-1.31;71.27;96446.13;107332;1281;69185;-67
2021/12/24 08:58:44;;;;;;;33.40;21.70;;;;;;;-1.24;70.76;96450.13;107345;1282;68388;-71
2021/12/24 09:01:14;;;;;;;36.50;24.00;;;;;;;-1.18;70.96;96444.75;107250;1281;69553;-66
2021/12/24 09:03:43;;;;;;;36.50;22.60;;;;;;;-1.12;71.19;96435.79;107195;1285;58157;-66
2021/12/24 09:06:12;;;;;;;28.40;20.30;;;;;;;-1.06;71.36;96430.70;107266;1283;58065;-65
2021/12/24 09:08:44;;;;;;;41.10;27.60;;;;;;;-0.96;71.32;96436.66;107322;1282;70227;-65
2021/12/24 09:11:13;;;;;;;37.60;23.30;;;;;;;-0.88;71.16;96440.09;107269;1281;68754;-66
2021/12/24 09:13:43;;;;;;;26.80;20.30;;;;;;;-0.84;71.38;96438.67;107243;1281;69527;-64
2021/12/24 09:16:12;;;;;;;23.50;16.60;;;;;;;-0.77;71.63;96441.15;107390;1284;58086;-65
2021/12/24 09:18:43;;;;;;;30.10;22.10;;;;;;;-0.72;71.41;96439.70;107385;1282;58167;-63
2021/12/24 09:21:16;;;;;;;32.90;23.10;;;;;;;-0.66;71.21;96438.77;107311;1282;70576;-66
2021/12/24 09:23:48;;;;;;;34.80;25.50;;;;;;;-0.61;71.67;96436.48;107295;1281;68618;-66
2021/12/24 09:26:32;;;;;;;33.10;23.20;;;;;;;-0.57;71.81;96429.63;107279;1281;68974;-66
2021/12/24 09:29:04;;;;;;;32.30;20.60;;;;;;;-0.53;71.86;96420.38;107295;1282;58532;-66
2021/12/24 09:31:33;;;;;;;52.50;33.10;;;;;;;-0.47;70.99;96419.13;107269;1282;58160;-67
2021/12/24 09:34:04;;;;;;;47.90;32.70;;;;;;;-0.46;71.41;96409.30;107362;1285;69978;-65
2021/12/24 09:36:34;;;;;;;42.90;28.50;;;;;;;-0.44;71.61;96406.15;107289;1282;69264;-72
2021/12/24 09:39:10;;;;;;;53.00;34.80;;;;;;;-0.42;71.80;96402.95;107166;1283;68630;-63
2021/12/24 09:41:44;;;;;;;33.00;23.00;;;;;;;-0.39;72.15;96400.58;107428;1285;58116;-65
2021/12/24 09:44:14;;;;;;;30.30;20.60;;;;;;;-0.33;72.66;96406.46;107402;1285;58098;-67
2021/12/24 09:46:45;;;;;;;54.30;34.10;;;;;;;-0.24;72.74;96400.59;107263;1282;69869;-63
2021/12/24 09:49:15;;;;;;;54.20;33.50;;;;;;;-0.17;72.09;96395.16;107387;1281;68904;-70
2021/12/24 09:51:48;;;;;;;42.90;27.50;;;;;;;-0.12;72.18;96397.29;107353;1284;68642;-68
2021/12/24 09:54:23;;;;;;;56.60;34.00;;;;;;;-0.07;72.34;96392.60;107372;1282;57587;-71
2021/12/24 09:56:56;;;;;;;35.20;24.50;;;;;;;-0.02;72.41;96386.70;108197;1270;58087;-69
2021/12/24 09:59:30;;;;;;;67.50;42.00;;;;;;;0.03;72.85;96386.65;108147;1272;68998;-70
2021/12/24 10:02:17;;;;;;;53.30;35.80;;;;;;;0.09;72.31;96382.27;108148;1271;67848;-70
2021/12/24 10:04:52;;;;;;;60.60;37.80;;;;;;;0.16;72.55;96372.86;108023;1271;68665;-63
2021/12/24 10:07:25;;;;;;;60.00;35.50;;;;;;;0.26;73.07;96370.33;108263;1270;58097;-67
2021/12/24 10:10:06;;;;;;;61.00;35.90;;;;;;;0.34;72.93;96360.35;107851;1274;58104;-71
2021/12/24 10:12:36;;;;;;;50.10;31.70;;;;;;;0.37;72.79;96354.37;108333;1272;69488;-70
2021/12/24 10:15:07;;;;;;;45.00;28.80;;;;;;;0.44;72.44;96347.17;108135;1273;68729;-68
2021/12/24 10:17:38;;;;;;;57.30;35.40;;;;;;;0.48;72.66;96342.31;108185;1269;68756;-66
2021/12/24 10:20:16;;;;;;;47.80;32.50;;;;;;;0.58;73.33;96341.34;108368;1272;58065;-66
2021/12/24 10:22:52;;;;;;;47.40;31.20;;;;;;;0.70;73.16;96341.59;107866;1274;58476;-71
2021/12/24 10:25:28;;;;;;;50.20;32.70;;;;;;;0.83;72.18;96330.81;108091;1272;70080;-65
2021/12/24 10:28:11;;;;;;;49.00;33.20;;;;;;;0.91;73.22;96327.31;108179;1271;69103;-63
2021/12/24 10:31:00;;;;;;;39.90;25.10;;;;;;;1.05;72.60;96315.05;107998;1272;68745;-72
2021/12/24 10:33:36;;;;;;;55.50;34.70;;;;;;;1.16;72.64;96311.89;108304;1273;58093;-69
2021/12/24 10:36:07;;;;;;;56.10;37.10;;;;;;;1.21;72.51;96313.17;108092;1272;58081;-67
2021/12/24 10:38:36;;;;;;;33.20;22.20;;;;;;;1.26;72.42;96306.05;107910;1274;69017;-71
2021/12/24 10:41:07;;;;;;;26.00;18.00;;;;;;;1.22;72.66;96309.86;108075;1272;69036;-71
2021/12/24 10:43:40;;;;;;;33.00;22.40;;;;;;;1.19;72.95;96312.62;108064;1272;69372;-67
2021/12/24 10:48:20;;;;;;;23.40;17.50;;;;;;;1.16;72.51;96316.19;104644;1310;596340;-69
2021/12/24 10:51:19;;;;;;;31.10;19.70;;;;;;;1.13;72.61;96314.81;107080;1286;57694;-64
2021/12/24 10:54:07;;;;;;;26.40;17.50;;;;;;;1.12;72.90;96308.03;107100;1285;57865;-65
2021/12/24 10:56:36;;;;;;;28.90;19.00;;;;;;;1.11;73.11;96306.02;107405;1285;69157;-69
2021/12/24 10:59:06;;;;;;;35.00;24.10;;;;;;;1.11;73.24;96306.17;107282;1285;68678;-70
2021/12/24 11:01:37;;;;;;;52.20;37.60;;;;;;;1.13;73.33;96303.51;106980;1280;438599;-69
2021/12/24 11:04:10;;;;;;;48.30;31.90;;;;;;;1.14;73.90;96306.17;107022;1284;57668;-70
2021/12/24 11:06:39;;;;;;;;;;;;;;;1.16;73.57;96300.23;107264;1280;57655;-71
2021/12/24 11:09:09;;;;;;;31.80;19.40;;;;;;;1.19;74.49;96302.31;107309;1282;69525;-72
2021/12/24 11:11:38;;;;;;;31.90;21.10;;;;;;;1.23;74.04;96303.98;107293;1281;67960;-70
2021/12/24 11:14:20;;;;;;;37.90;26.70;;;;;;;1.26;74.02;96312.21;107219;1280;70088;-67
2021/12/24 11:16:49;;;;;;;42.90;27.30;;;;;;;1.34;73.74;96305.14;107309;1281;58306;-70
2021/12/24 11:19:51;;;;;;;29.60;21.30;;;;;;;1.41;73.66;96301.98;107394;1281;58080;-65
2021/12/24 11:22:20;;;;;;;45.70;28.40;;;;;;;1.50;74.07;96307.87;107315;1281;69204;-69
2021/12/24 11:24:49;;;;;;;31.10;21.60;;;;;;;1.55;74.23;96307.24;107288;1280;68382;-71
2021/12/24 11:27:19;;;;;;;30.00;21.00;;;;;;;1.61;73.76;96307.42;107300;1281;69580;-72
2021/12/24 11:29:48;;;;;;;42.10;29.40;;;;;;;1.67;73.87;96310.35;107248;1282;58091;-72
2021/12/24 11:32:17;;;;;;;46.70;31.60;;;;;;;1.71;73.46;96307.75;107268;1282;58047;-72
2021/12/24 11:34:47;;;;;;;25.70;18.90;;;;;;;1.74;73.84;96319.10;107410;1281;70537;-65
2021/12/24 11:37:16;;;;;;;35.20;25.30;;;;;;;1.80;73.48;96304.67;107338;1282;68736;-70
2021/12/24 11:39:46;;;;;;;42.90;29.80;;;;;;;1.85;73.92;96314.69;107264;1281;68758;-72
2021/12/24 11:42:18;;;;;;;45.40;32.90;;;;;;;1.88;73.77;96320.86;107323;1281;58155;-73
2021/12/24 11:44:49;;;;;;;47.70;32.20;;;;;;;1.92;73.61;96312.92;107316;1281;58094;-74
2021/12/24 11:47:19;;;;;;;37.20;24.50;;;;;;;1.89;73.89;96315.65;107302;1280;70508;-72
2021/12/24 11:49:48;;;;;;;35.70;24.00;;;;;;;1.91;73.83;96317.81;107306;1280;68635;-66
2021/12/24 11:52:18;;;;;;;42.70;30.20;;;;;;;1.91;74.17;96324.83;107737;1272;68978;-72
2021/12/24 11:54:47;;;;;;;40.50;28.90;;;;;;;1.94;74.36;96324.84;107683;1274;58168;-70
2021/12/24 11:57:20;;;;;;;41.00;28.50;;;;;;;1.96;74.33;96327.64;107673;1274;58153;-69
2021/12/24 11:59:50;;;;;;;47.90;32.20;;;;;;;2.01;74.20;96325.99;107635;1274;70017;-68
2021/12/24 12:02:45;;;;;;;40.50;27.80;;;;;;;2.04;74.52;96329.98;107582;1274;68647;-70
2021/12/24 12:05:17;;;;;;;53.00;35.30;;;;;;;2.04;74.12;96327.05;107593;1274;70109;-73
2021/12/24 12:07:46;;;;;;;70.00;49.60;;;;;;;2.07;73.98;96320.04;107618;1274;58542;-65
2021/12/24 12:10:53;;;;;;;58.90;42.40;;;;;;;2.08;74.53;96324.42;107600;1274;58239;-70
2021/12/24 12:13:41;;;;;;;58.90;39.60;;;;;;;2.11;74.64;96320.48;107687;1277;69454;-66
2021/12/24 12:16:17;;;;;;;62.80;43.80;;;;;;;2.12;74.45;96316.84;107697;1277;68877;-74
2021/12/24 12:19:00;;;;;;;47.80;32.70;;;;;;;2.06;74.68;96323.84;107654;1274;69426;-73
2021/12/24 12:21:44;;;;;;;67.50;45.50;;;;;;;2.04;74.30;96320.02;107589;1277;58094;-64
2021/12/24 12:26:46;;;;;;;71.80;49.20;;;;;;;2.00;74.53;96334.48;107676;1274;69996;-68
2021/12/24 12:29:21;;;;;;;66.00;45.90;;;;;;;1.98;74.60;96329.07;107658;1275;68749;-63
2021/12/24 12:32:02;;;;;;;43.70;28.90;;;;;;;1.97;74.84;96326.42;107765;1274;68842;-65
2021/12/24 12:34:38;;;;;;;46.70;32.70;;;;;;;1.99;74.69;96324.24;107613;1275;58203;-64
2021/12/24 12:37:40;;;;;;;59.00;40.20;;;;;;;1.99;74.84;96324.05;107752;1275;58468;-65
2021/12/24 12:40:12;;;;;;;44.80;33.30;;;;;;;1.98;75.78;96335.95;107719;1274;69143;-67
2021/12/24 12:42:51;;;;;;;34.80;24.20;;;;;;;2.00;75.29;96337.58;107860;1274;67984;-67
2021/12/24 12:45:26;;;;;;;52.00;34.60;;;;;;;1.99;75.41;96336.42;107743;1274;69467;-64
2021/12/24 12:48:01;;;;;;;66.60;43.70;;;;;;;1.95;75.22;96333.41;107830;1273;58168;-76
2021/12/24 12:50:34;;;;;;;68.10;46.80;;;;;;;1.89;75.39;96333.86;107793;1274;58078;-74
2021/12/24 12:53:22;;;;;;;73.40;50.70;;;;;;;1.86;75.73;96333.53;107667;1277;70081;-74
2021/12/24 12:56:17;;;;;;;48.80;32.00;;;;;;;1.86;75.95;96334.58;107673;1274;68285;-72
2021/12/24 12:59:05;;;;;;;68.10;46.60;;;;;;;1.89;75.42;96335.42;107754;1274;69477;-75
2021/12/24 13:01:52;;;;;;;62.10;41.90;;;;;;;1.90;75.39;96331.29;107659;1274;58153;-76
2021/12/24 13:04:24;;;;;;;67.60;46.30;;;;;;;1.88;75.95;96333.94;107862;1275;58087;-77
2021/12/24 13:06:57;;;;;;;84.80;54.00;;;;;;;1.87;76.11;96334.21;107734;1275;68103;-66
2021/12/24 13:09:32;;;;;;;64.10;44.30;;;;;;;1.86;75.65;96334.93;107863;1274;69181;-68
2021/12/24 13:12:03;;;;;;;40.20;27.00;;;;;;;1.85;75.91;96336.86;107675;1274;70989;-65
2021/12/24 13:14:36;;;;;;;61.70;40.40;;;;;;;1.87;75.89;96336.06;107710;1276;58118;-65
2021/12/24 13:22:32;;;;;;;66.50;44.00;;;;;;;1.75;76.41;96351.17;107860;1274;67871;-77
2021/12/24 13:25:09;;;;;;;74.70;45.80;;;;;;;1.75;76.33;96346.17;107817;1274;69322;-75